sensor_id;sensor_type;location;lat;lon;timestamp;temperature;humidity
18043;DHT22;9146;48.074;11.968;2023-06-04T00:02:04;12.40;99.90
18043;DHT22;9146;48.074;11.968;2023-06-04T00:04:31;12.40;99.90
18043;DHT22;9146;48.074;11.968;2023-06-04T00:06:59;12.30;99.90
18043;DHT22;9146;48.074;11.968;2023-06-04T00:09:26;12.20;99.90
18043;DHT22;9146;48.074;11.968;2023-06-04T00:11:53;12.20;99.90
18043;DHT22;9146;48.074;11.968;2023-06-04T00:14:20;12.20;99.90
18043;DHT22;9146;48.074;11.968;2023-06-04T00:16:46;12.10;99.90
18043;DHT22;9146;48.074;11.968;2023-06-04T00:19:13;12.10;99.90
18043;DHT22;9146;48.074;11.968;2023-06-04T00:21:40;12.10;99.90
18043;DHT22;9146;48.074;11.968;2023-06-04T00:24:08;12.10;99.90
18043;DHT22;9146;48.074;11.968;2023-06-04T00:26:38;12.00;99.90
18043;DHT22;9146;48.074;11.968;2023-06-04T00:29:06;12.00;99.90
18043;DHT22;9146;48.074;11.968;2023-06-04T00:31:32;12.00;99.90
18043;DHT22;9146;48.074;11.968;2023-06-04T00:33:59;11.90;99.90
18043;DHT22;9146;48.074;11.968;2023-06-04T00:36:26;11.90;99.90
18043;DHT22;9146;48.074;11.968;2023-06-04T00:38:53;11.90;99.90
18043;DHT22;9146;48.074;11.968;2023-06-04T00:41:21;11.80;99.90
18043;DHT22;9146;48.074;11.968;2023-06-04T00:43:48;11.80;99.90
18043;DHT22;9146;48.074;11.968;2023-06-04T00:46:22;11.80;99.90
18043;DHT22;9146;48.074;11.968;2023-06-04T00:48:51;11.70;99.90
18043;DHT22;9146;48.074;11.968;2023-06-04T00:51:18;11.70;99.90
18043;DHT22;9146;48.074;11.968;2023-06-04T00:53:46;11.60;99.90
18043;DHT22;9146;48.074;11.968;2023-06-04T00:56:13;11.60;99.90
18043;DHT22;9146;48.074;11.968;2023-06-04T00:58:41;11.60;99.90
18043;DHT22;9146;48.074;11.968;2023-06-04T01:01:15;11.60;99.90
18043;DHT22;9146;48.074;11.968;2023-06-04T01:03:46;11.50;99.90
18043;DHT22;9146;48.074;11.968;2023-06-04T01:06:19;11.50;99.90
18043;DHT22;9146;48.074;11.968;2023-06-04T01:08:49;11.40;99.90
18043;DHT22;9146;48.074;11.968;2023-06-04T01:11:31;11.40;99.90
18043;DHT22;9146;48.074;11.968;2023-06-04T01:14:01;11.30;99.90
18043;DHT22;9146;48.074;11.968;2023-06-04T01:16:30;11.30;99.90
18043;DHT22;9146;48.074;11.968;2023-06-04T01:19:02;11.30;99.90
18043;DHT22;9146;48.074;11.968;2023-06-04T01:21:35;11.30;99.90
18043;DHT22;9146;48.074;11.968;2023-06-04T01:24:05;11.20;99.90
18043;DHT22;9146;48.074;11.968;2023-06-04T01:26:32;11.20;99.90
18043;DHT22;9146;48.074;11.968;2023-06-04T01:29:00;11.20;99.90
18043;DHT22;9146;48.074;11.968;2023-06-04T01:31:28;11.20;99.90
18043;DHT22;9146;48.074;11.968;2023-06-04T01:33:58;11.20;99.90
18043;DHT22;9146;48.074;11.968;2023-06-04T01:36:25;11.10;99.90
18043;DHT22;9146;48.074;11.968;2023-06-04T01:38:53;11.10;99.90
18043;DHT22;9146;48.074;11.968;2023-06-04T01:41:20;11.10;99.90
18043;DHT22;9146;48.074;11.968;2023-06-04T01:43:47;11.10;99.90
18043;DHT22;9146;48.074;11.968;2023-06-04T01:46:15;11.00;99.90
18043;DHT22;9146;48.074;11.968;2023-06-04T01:48:42;11.00;99.90
18043;DHT22;9146;48.074;11.968;2023-06-04T01:51:09;11.00;99.90
18043;DHT22;9146;48.074;11.968;2023-06-04T01:53:35;11.00;99.90
18043;DHT22;9146;48.074;11.968;2023-06-04T01:56:02;11.00;99.90
18043;DHT22;9146;48.074;11.968;2023-06-04T01:58:29;11.00;99.90
18043;DHT22;9146;48.074;11.968;2023-06-04T02:00:57;10.90;99.90
18043;DHT22;9146;48.074;11.968;2023-06-04T02:03:27;10.90;99.90
18043;DHT22;9146;48.074;11.968;2023-06-04T02:05:58;10.90;99.90
18043;DHT22;9146;48.074;11.968;2023-06-04T02:08:24;10.90;99.90
18043;DHT22;9146;48.074;11.968;2023-06-04T02:10:53;10.80;99.90
18043;DHT22;9146;48.074;11.968;2023-06-04T02:13:20;10.80;99.90
18043;DHT22;9146;48.074;11.968;2023-06-04T02:15:47;10.70;99.90
18043;DHT22;9146;48.074;11.968;2023-06-04T02:18:16;10.70;99.90
18043;DHT22;9146;48.074;11.968;2023-06-04T02:20:45;10.70;99.90
18043;DHT22;9146;48.074;11.968;2023-06-04T02:23:13;10.70;99.90
18043;DHT22;9146;48.074;11.968;2023-06-04T02:25:41;10.60;99.90
18043;DHT22;9146;48.074;11.968;2023-06-04T02:28:10;10.60;99.90
18043;DHT22;9146;48.074;11.968;2023-06-04T02:30:37;10.60;99.90
18043;DHT22;9146;48.074;11.968;2023-06-04T02:33:04;10.50;99.90
18043;DHT22;9146;48.074;11.968;2023-06-04T02:35:31;10.50;99.90
18043;DHT22;9146;48.074;11.968;2023-06-04T02:38:00;10.50;99.90
18043;DHT22;9146;48.074;11.968;2023-06-04T02:40:27;10.40;99.90
18043;DHT22;9146;48.074;11.968;2023-06-04T02:42:55;10.40;99.90
18043;DHT22;9146;48.074;11.968;2023-06-04T02:45:22;10.40;99.90
18043;DHT22;9146;48.074;11.968;2023-06-04T02:47:49;10.40;99.90
18043;DHT22;9146;48.074;11.968;2023-06-04T02:50:17;10.40;99.90
18043;DHT22;9146;48.074;11.968;2023-06-04T02:52:44;10.40;99.90
18043;DHT22;9146;48.074;11.968;2023-06-04T02:55:14;10.40;99.90
18043;DHT22;9146;48.074;11.968;2023-06-04T02:57:42;10.40;99.90
18043;DHT22;9146;48.074;11.968;2023-06-04T03:00:11;10.40;99.90
18043;DHT22;9146;48.074;11.968;2023-06-04T03:02:42;10.40;99.90
18043;DHT22;9146;48.074;11.968;2023-06-04T03:05:12;10.40;99.90
18043;DHT22;9146;48.074;11.968;2023-06-04T03:07:40;10.40;99.90
18043;DHT22;9146;48.074;11.968;2023-06-04T03:10:09;10.40;99.90
18043;DHT22;9146;48.074;11.968;2023-06-04T03:12:38;10.40;99.90
18043;DHT22;9146;48.074;11.968;2023-06-04T03:15:06;10.30;99.90
18043;DHT22;9146;48.074;11.968;2023-06-04T03:17:33;10.30;99.90
18043;DHT22;9146;48.074;11.968;2023-06-04T03:19:59;10.30;99.90
18043;DHT22;9146;48.074;11.968;2023-06-04T03:22:26;10.20;99.90
18043;DHT22;9146;48.074;11.968;2023-06-04T03:24:54;10.20;99.90
18043;DHT22;9146;48.074;11.968;2023-06-04T03:27:21;10.20;99.90
18043;DHT22;9146;48.074;11.968;2023-06-04T03:29:49;10.20;99.90
18043;DHT22;9146;48.074;11.968;2023-06-04T03:32:17;10.20;99.90
18043;DHT22;9146;48.074;11.968;2023-06-04T03:34:44;10.20;99.90
18043;DHT22;9146;48.074;11.968;2023-06-04T03:37:11;10.20;99.90
18043;DHT22;9146;48.074;11.968;2023-06-04T03:39:38;10.20;99.90
18043;DHT22;9146;48.074;11.968;2023-06-04T03:42:05;10.20;99.90
18043;DHT22;9146;48.074;11.968;2023-06-04T03:44:32;10.20;99.90
18043;DHT22;9146;48.074;11.968;2023-06-04T03:47:01;10.20;99.90
18043;DHT22;9146;48.074;11.968;2023-06-04T03:49:27;10.30;99.90
18043;DHT22;9146;48.074;11.968;2023-06-04T03:51:54;10.40;99.90
18043;DHT22;9146;48.074;11.968;2023-06-04T03:54:21;10.40;99.90
18043;DHT22;9146;48.074;11.968;2023-06-04T03:56:48;10.50;99.90
18043;DHT22;9146;48.074;11.968;2023-06-04T03:59:15;10.60;99.90
18043;DHT22;9146;48.074;11.968;2023-06-04T04:01:42;10.80;99.90
18043;DHT22;9146;48.074;11.968;2023-06-04T04:04:10;10.90;99.90
18043;DHT22;9146;48.074;11.968;2023-06-04T04:06:37;11.00;99.90
18043;DHT22;9146;48.074;11.968;2023-06-04T04:09:04;11.20;99.90
18043;DHT22;9146;48.074;11.968;2023-06-04T04:11:32;11.30;99.90
18043;DHT22;9146;48.074;11.968;2023-06-04T04:13:59;11.50;99.90
18043;DHT22;9146;48.074;11.968;2023-06-04T04:16:26;11.60;99.90
18043;DHT22;9146;48.074;11.968;2023-06-04T04:18:53;11.70;99.90
18043;DHT22;9146;48.074;11.968;2023-06-04T04:21:22;11.90;99.90
18043;DHT22;9146;48.074;11.968;2023-06-04T04:23:49;12.00;99.90
18043;DHT22;9146;48.074;11.968;2023-06-04T04:26:17;12.20;99.90
18043;DHT22;9146;48.074;11.968;2023-06-04T04:28:44;12.30;99.90
18043;DHT22;9146;48.074;11.968;2023-06-04T04:31:11;12.50;99.90
18043;DHT22;9146;48.074;11.968;2023-06-04T04:33:38;12.60;99.90
18043;DHT22;9146;48.074;11.968;2023-06-04T04:36:06;12.80;99.90
18043;DHT22;9146;48.074;11.968;2023-06-04T04:38:40;12.90;99.90
18043;DHT22;9146;48.074;11.968;2023-06-04T04:41:07;13.10;99.90
18043;DHT22;9146;48.074;11.968;2023-06-04T04:43:35;13.20;99.90
18043;DHT22;9146;48.074;11.968;2023-06-04T04:46:03;13.30;99.90
18043;DHT22;9146;48.074;11.968;2023-06-04T04:48:30;13.40;99.90
18043;DHT22;9146;48.074;11.968;2023-06-04T04:50:57;13.60;99.90
18043;DHT22;9146;48.074;11.968;2023-06-04T04:53:24;13.60;99.90
18043;DHT22;9146;48.074;11.968;2023-06-04T04:55:52;13.70;99.90
18043;DHT22;9146;48.074;11.968;2023-06-04T04:58:19;13.80;99.90
18043;DHT22;9146;48.074;11.968;2023-06-04T05:00:46;13.90;99.90
18043;DHT22;9146;48.074;11.968;2023-06-04T05:03:13;14.00;99.90
18043;DHT22;9146;48.074;11.968;2023-06-04T05:05:40;14.10;99.90
18043;DHT22;9146;48.074;11.968;2023-06-04T05:08:07;14.10;99.90
18043;DHT22;9146;48.074;11.968;2023-06-04T05:10:34;14.10;99.90
18043;DHT22;9146;48.074;11.968;2023-06-04T05:13:03;14.20;99.90
18043;DHT22;9146;48.074;11.968;2023-06-04T05:15:31;14.30;99.90
18043;DHT22;9146;48.074;11.968;2023-06-04T05:17:58;14.40;99.90
18043;DHT22;9146;48.074;11.968;2023-06-04T05:20:27;14.50;99.90
18043;DHT22;9146;48.074;11.968;2023-06-04T05:22:55;14.60;99.90
18043;DHT22;9146;48.074;11.968;2023-06-04T05:25:22;14.80;99.90
18043;DHT22;9146;48.074;11.968;2023-06-04T05:27:48;14.90;99.90
18043;DHT22;9146;48.074;11.968;2023-06-04T05:30:17;15.10;99.90
18043;DHT22;9146;48.074;11.968;2023-06-04T05:32:44;15.20;99.90
18043;DHT22;9146;48.074;11.968;2023-06-04T05:35:11;15.20;99.90
18043;DHT22;9146;48.074;11.968;2023-06-04T05:37:39;15.30;99.90
18043;DHT22;9146;48.074;11.968;2023-06-04T05:40:08;15.40;99.90
18043;DHT22;9146;48.074;11.968;2023-06-04T05:42:36;15.40;99.90
18043;DHT22;9146;48.074;11.968;2023-06-04T05:45:04;15.50;99.90
18043;DHT22;9146;48.074;11.968;2023-06-04T05:47:35;15.60;99.90
18043;DHT22;9146;48.074;11.968;2023-06-04T05:50:03;15.70;99.90
18043;DHT22;9146;48.074;11.968;2023-06-04T05:52:31;15.70;99.90
18043;DHT22;9146;48.074;11.968;2023-06-04T05:54:58;15.80;99.90
18043;DHT22;9146;48.074;11.968;2023-06-04T05:57:24;15.80;99.90
18043;DHT22;9146;48.074;11.968;2023-06-04T05:59:51;15.90;99.90
18043;DHT22;9146;48.074;11.968;2023-06-04T06:02:18;15.90;99.90
18043;DHT22;9146;48.074;11.968;2023-06-04T06:04:47;15.90;99.90
18043;DHT22;9146;48.074;11.968;2023-06-04T06:07:14;16.00;99.90
18043;DHT22;9146;48.074;11.968;2023-06-04T06:09:41;16.00;99.90
18043;DHT22;9146;48.074;11.968;2023-06-04T06:12:08;15.90;99.90
18043;DHT22;9146;48.074;11.968;2023-06-04T06:14:36;16.00;99.90
18043;DHT22;9146;48.074;11.968;2023-06-04T06:17:04;16.10;99.90
18043;DHT22;9146;48.074;11.968;2023-06-04T06:19:32;16.10;99.90
18043;DHT22;9146;48.074;11.968;2023-06-04T06:22:00;16.20;99.90
18043;DHT22;9146;48.074;11.968;2023-06-04T06:24:28;16.20;99.90
18043;DHT22;9146;48.074;11.968;2023-06-04T06:26:55;16.30;99.90
18043;DHT22;9146;48.074;11.968;2023-06-04T06:29:22;16.30;99.90
18043;DHT22;9146;48.074;11.968;2023-06-04T06:31:49;16.30;99.90
18043;DHT22;9146;48.074;11.968;2023-06-04T06:34:16;16.40;99.90
18043;DHT22;9146;48.074;11.968;2023-06-04T06:36:43;16.50;99.90
18043;DHT22;9146;48.074;11.968;2023-06-04T06:39:11;16.50;99.90
18043;DHT22;9146;48.074;11.968;2023-06-04T06:41:38;16.60;99.90
18043;DHT22;9146;48.074;11.968;2023-06-04T06:44:05;16.60;99.90
18043;DHT22;9146;48.074;11.968;2023-06-04T06:46:32;16.60;99.90
18043;DHT22;9146;48.074;11.968;2023-06-04T06:48:59;16.70;99.90
18043;DHT22;9146;48.074;11.968;2023-06-04T06:51:26;16.70;99.90
18043;DHT22;9146;48.074;11.968;2023-06-04T06:53:53;16.80;99.90
18043;DHT22;9146;48.074;11.968;2023-06-04T06:56:21;16.90;99.90
18043;DHT22;9146;48.074;11.968;2023-06-04T06:58:48;16.90;99.90
18043;DHT22;9146;48.074;11.968;2023-06-04T07:01:15;17.00;99.90
18043;DHT22;9146;48.074;11.968;2023-06-04T07:03:42;17.10;99.90
18043;DHT22;9146;48.074;11.968;2023-06-04T07:06:09;17.20;99.90
18043;DHT22;9146;48.074;11.968;2023-06-04T07:08:36;17.30;99.90
18043;DHT22;9146;48.074;11.968;2023-06-04T07:11:03;17.30;99.90
18043;DHT22;9146;48.074;11.968;2023-06-04T07:13:32;17.40;99.90
18043;DHT22;9146;48.074;11.968;2023-06-04T07:16:01;17.50;99.90
18043;DHT22;9146;48.074;11.968;2023-06-04T07:18:28;17.50;99.90
18043;DHT22;9146;48.074;11.968;2023-06-04T07:20:55;17.60;99.90
18043;DHT22;9146;48.074;11.968;2023-06-04T07:23:22;17.60;99.90
18043;DHT22;9146;48.074;11.968;2023-06-04T07:25:49;17.70;99.90
18043;DHT22;9146;48.074;11.968;2023-06-04T07:28:16;17.70;99.90
18043;DHT22;9146;48.074;11.968;2023-06-04T07:30:45;17.80;99.90
18043;DHT22;9146;48.074;11.968;2023-06-04T07:33:12;17.90;99.90
18043;DHT22;9146;48.074;11.968;2023-06-04T07:35:39;18.00;99.90
18043;DHT22;9146;48.074;11.968;2023-06-04T07:38:06;18.00;99.90
18043;DHT22;9146;48.074;11.968;2023-06-04T07:40:33;18.10;99.90
18043;DHT22;9146;48.074;11.968;2023-06-04T07:43:00;18.20;99.90
18043;DHT22;9146;48.074;11.968;2023-06-04T07:45:27;18.30;99.90
18043;DHT22;9146;48.074;11.968;2023-06-04T07:47:57;18.30;99.90
18043;DHT22;9146;48.074;11.968;2023-06-04T07:50:24;18.40;99.90
18043;DHT22;9146;48.074;11.968;2023-06-04T09:49:06;18.40;99.90
